Louann, Arkansas
Current Conditions -  °F | °C
As of 8:53 PM on Sunday 21 Dec 2014 (Local Time) from KELD Reporting Station
Few Clouds Few Clouds  
Wind Chill: 38°   Ceiling: Unl
Heat Index: 42°   Visibility: 10mi
Dew Point: 40°   Wind: 6mph
Humidity: 92%   Direction: 110°ESE
Pressure: 29.92"   Gusts: NA
Location:  33.39°N, 92.79°W
Report Text: KELD 220253Z AUTO 11005KT 10SM FEW080 06/04 A2992 RMK AO2 SLP130 T00560044 58010
Loading
Personal Weather Stations






























Interactive Weather Map New forecast layout! Learn more

10-Day Weather Forecast

Advertisements
Track Severe Weather on mobile